Burghead, United Kingdom
Current Conditions -  °F | °C
As of 1:50 PM on Wednesday 28 Jan 2015 (Local Time) from EGQK Reporting Station
Unknown Precip Unknown Precip  
Wind Chill: 23°   Ceiling: 5000
Heat Index: 34°   Visibility: 1.2mi
Dew Point: 32°   Wind: 18mph
Humidity: 93%   Direction: 240°WSW
Pressure: 29.03"   Gusts: NA
Location:  57.7°N, 3.49°W
Report Text: EGQK 281350Z AUTO 24016KT 2000 UP FEW004/// BKN050/// 01/M00 Q0983
Loading
Personal Weather Stations






























Interactive Weather Map New forecast layout! Learn more

10-Day Weather Forecast

Advertisements
Track Severe Weather on mobile